createdAt,value
2018-12-22T00:01:22.721Z,96677.11
2018-12-22T00:04:26.789Z,96677.34
2018-12-22T00:07:30.725Z,96673.88
2018-12-22T00:10:34.824Z,96665.03
2018-12-22T00:13:38.756Z,96656.77
2018-12-22T00:16:42.896Z,96657.84
2018-12-22T00:19:46.842Z,96656.55
2018-12-22T00:22:50.896Z,96656.06
2018-12-22T00:25:54.828Z,96666.00
2018-12-22T00:28:58.870Z,96667.43
2018-12-22T00:32:02.793Z,96685.61
2018-12-22T00:35:06.928Z,96672.46
2018-12-22T00:38:10.877Z,96673.41
2018-12-22T00:41:14.959Z,96683.44
2018-12-22T00:44:18.892Z,96669.95
2018-12-22T00:47:23.088Z,96683.56
2018-12-22T00:50:27.140Z,96668.97
2018-12-22T00:53:31.220Z,96667.77
2018-12-22T00:56:35.157Z,96667.77
2018-12-22T00:59:39.245Z,96667.06
2018-12-22T01:02:43.245Z,96670.52
2018-12-22T01:05:47.385Z,96673.63
2018-12-22T01:08:51.355Z,96673.76
2018-12-22T01:11:55.408Z,96667.42
2018-12-22T01:14:59.354Z,96669.81
2018-12-22T01:18:03.417Z,96659.54
2018-12-22T01:21:07.356Z,96656.90
2018-12-22T01:24:11.451Z,96661.09
2018-12-22T01:27:15.412Z,96658.94
2018-12-22T01:30:19.481Z,96656.19
2018-12-22T01:33:23.420Z,96653.44
2018-12-22T01:36:27.485Z,96652.14
2018-12-22T01:39:31.471Z,96669.56
2018-12-22T01:42:35.640Z,96672.20
2018-12-22T01:45:39.592Z,96670.55
2018-12-22T01:48:43.668Z,96671.27
2018-12-22T01:51:47.604Z,96671.46
2018-12-22T01:54:51.792Z,96656.23
2018-12-22T01:57:55.744Z,96659.12
2018-12-22T02:00:59.824Z,96658.22
2018-12-22T02:04:03.761Z,96658.44
2018-12-22T02:07:07.814Z,96670.43
2018-12-22T02:10:11.744Z,96662.80
2018-12-22T02:13:15.888Z,96678.84
2018-12-22T02:16:19.811Z,96671.05
2018-12-22T02:19:24.009Z,96673.80
2018-12-22T02:22:27.934Z,96678.75
2018-12-22T02:25:32.029Z,96669.12
2018-12-22T02:28:35.963Z,96668.77
2018-12-22T02:31:40.158Z,96666.74
2018-12-22T02:34:44.109Z,96675.66
2018-12-22T02:37:48.155Z,96659.13
2018-12-22T02:40:52.094Z,96661.28
2018-12-22T02:43:56.108Z,96655.75
2018-12-22T02:47:00.061Z,96672.14
2018-12-22T02:50:04.650Z,96650.09
2018-12-22T02:53:08.576Z,96660.75
2018-12-22T02:56:12.988Z,96634.29
2018-12-22T02:59:16.918Z,96649.63
2018-12-22T03:02:21.010Z,96648.44
2018-12-22T03:05:25.027Z,96649.00
2018-12-22T03:08:29.245Z,96647.22
2018-12-22T03:11:33.191Z,96642.62
2018-12-22T03:14:37.276Z,96642.55
2018-12-22T03:17:41.316Z,96648.27
2018-12-22T03:20:45.397Z,96644.31
2018-12-22T03:23:49.340Z,96641.05
2018-12-22T03:26:53.532Z,96638.69
2018-12-22T03:29:57.490Z,96643.17
2018-12-22T03:33:01.554Z,96648.80
2018-12-22T03:36:05.488Z,96624.05
2018-12-22T03:39:09.565Z,96636.03
2018-12-22T03:42:13.614Z,96635.89
2018-12-22T03:45:17.817Z,96642.72
2018-12-22T03:48:21.765Z,96649.76
2018-12-22T03:51:25.836Z,96662.80
2018-12-22T03:54:29.788Z,96656.54
2018-12-22T03:57:33.860Z,96648.53
2018-12-22T04:00:37.800Z,96659.08
2018-12-22T04:03:41.889Z,96658.22
2018-12-22T04:06:45.824Z,96667.57
2018-12-22T04:09:49.913Z,96660.92
2018-12-22T04:12:53.840Z,96666.66
2018-12-22T04:15:57.941Z,96668.69
2018-12-22T04:19:01.873Z,96661.84
2018-12-22T04:22:05.969Z,96666.39
2018-12-22T04:25:09.904Z,96659.17
2018-12-22T04:28:13.994Z,96662.98
2018-12-22T04:31:17.976Z,96656.63
2018-12-22T04:34:22.022Z,96665.27
2018-12-22T04:37:25.948Z,96666.09
2018-12-22T04:40:30.986Z,96660.95
2018-12-22T04:43:34.960Z,96667.36
2018-12-22T04:46:39.103Z,96655.14
2018-12-22T04:49:43.053Z,96661.13
2018-12-22T04:52:47.332Z,96666.64
2018-12-22T04:55:51.280Z,96654.09
2018-12-22T04:58:55.358Z,96663.91
2018-12-22T05:01:59.289Z,96659.03
2018-12-22T05:05:03.320Z,96656.08
2018-12-22T05:08:07.254Z,96652.98
2018-12-22T05:11:11.310Z,96656.70
2018-12-22T05:14:15.255Z,96642.18
2018-12-22T05:17:19.333Z,96665.66
2018-12-22T05:20:23.285Z,96669.08
2018-12-22T05:23:27.327Z,96670.27
2018-12-22T05:26:31.256Z,96670.63
2018-12-22T05:29:35.392Z,96678.17
2018-12-22T05:32:39.340Z,96673.49
2018-12-22T05:35:43.352Z,96675.77
2018-12-22T05:38:47.316Z,96672.44
2018-12-22T05:41:51.439Z,96662.77
2018-12-22T05:44:55.377Z,96662.98
2018-12-22T05:47:59.669Z,96679.48
2018-12-22T05:51:03.603Z,96675.08
2018-12-22T05:54:07.759Z,96671.58
2018-12-22T05:57:11.700Z,96671.31
2018-12-22T06:00:15.830Z,96678.95
2018-12-22T06:03:19.764Z,96686.23
2018-12-22T06:06:23.853Z,96684.81
2018-12-22T06:09:27.794Z,96677.37
2018-12-22T06:12:31.813Z,96688.05
2018-12-22T06:15:35.759Z,96681.49
2018-12-22T06:18:39.804Z,96676.95
2018-12-22T06:21:43.776Z,96676.98
2018-12-22T06:24:47.938Z,96670.86
2018-12-22T06:27:51.917Z,96682.68
2018-12-22T06:30:55.973Z,96678.59
2018-12-22T06:33:59.904Z,96673.31
2018-12-22T06:37:03.987Z,96682.86
2018-12-22T06:40:08.326Z,96688.23
2018-12-22T06:43:12.427Z,96678.55
2018-12-22T06:46:16.360Z,96680.91
2018-12-22T06:49:20.464Z,96687.23
2018-12-22T06:52:24.420Z,96693.45
2018-12-22T06:55:28.480Z,96691.27
2018-12-22T06:58:32.424Z,96690.85
2018-12-22T07:01:36.505Z,96689.48
2018-12-22T07:04:40.444Z,96692.25
2018-12-22T07:07:44.629Z,96691.97
2018-12-22T07:10:48.569Z,96691.12
2018-12-22T07:13:52.613Z,96684.06
2018-12-22T07:16:56.637Z,96690.43
2018-12-22T07:20:00.785Z,96672.92
2018-12-22T07:23:04.991Z,96683.61
2018-12-22T07:26:09.017Z,96685.65
2018-12-22T07:29:13.000Z,96684.06
2018-12-22T07:32:17.257Z,96681.88
2018-12-22T07:35:21.196Z,96683.09
2018-12-22T07:38:25.276Z,96668.67
2018-12-22T07:41:29.236Z,96670.55
2018-12-22T07:44:33.280Z,96674.36
2018-12-22T07:47:37.254Z,96685.05
2018-12-22T07:50:41.268Z,96684.31
2018-12-22T07:53:45.210Z,96697.31
2018-12-22T07:56:49.357Z,96707.87
2018-12-22T07:59:53.328Z,96710.42
2018-12-22T08:02:57.384Z,96717.30
2018-12-22T08:06:01.338Z,96721.16
2018-12-22T08:09:06.642Z,96725.31
2018-12-22T08:12:10.609Z,96746.15
2018-12-22T08:15:14.765Z,96745.64
2018-12-22T08:18:18.709Z,96741.95
2018-12-22T08:21:22.793Z,96748.01
2018-12-22T08:24:26.733Z,96742.73
2018-12-22T08:27:30.820Z,96749.09
2018-12-22T08:30:43.337Z,96744.19
2018-12-22T08:33:40.818Z,96743.82
2018-12-22T08:36:44.789Z,96745.73
2018-12-22T08:39:48.920Z,96760.00
2018-12-22T08:42:52.879Z,96762.27
2018-12-22T08:45:56.952Z,96761.11
2018-12-22T08:49:00.889Z,96755.48
2018-12-22T08:52:04.981Z,96755.61
2018-12-22T08:55:08.956Z,96759.42
2018-12-22T08:58:13.109Z,96743.12
2018-12-22T09:01:17.044Z,96728.47
2018-12-22T09:04:21.129Z,96737.11
2018-12-22T09:07:25.072Z,96744.75
2018-12-22T09:10:29.156Z,96729.13
2018-12-22T09:13:33.105Z,96725.27
2018-12-22T09:16:37.121Z,96721.41
2018-12-22T09:19:41.075Z,96717.65
2018-12-22T09:22:45.110Z,96719.06
2018-12-22T09:25:49.053Z,96716.04
2018-12-22T09:28:53.227Z,96709.67
2018-12-22T09:31:57.164Z,96697.40
2018-12-22T09:35:01.291Z,96698.85
2018-12-22T09:38:05.265Z,96702.95
2018-12-22T09:41:10.109Z,96697.58
2018-12-22T09:44:14.056Z,96689.17
2018-12-22T09:47:18.360Z,96681.48
2018-12-22T09:50:22.305Z,96689.16
2018-12-22T09:53:26.473Z,96688.89
2018-12-22T09:56:30.409Z,96690.70
2018-12-22T09:59:34.577Z,96695.13
2018-12-22T10:02:38.528Z,96697.16
2018-12-22T10:05:43.345Z,96695.93
2018-12-22T10:08:47.280Z,96690.30
2018-12-22T10:11:51.369Z,96684.42
2018-12-22T10:14:55.312Z,96674.47
2018-12-22T10:17:59.392Z,96666.06
2018-12-22T10:21:03.377Z,96676.28
2018-12-22T10:24:07.432Z,96670.02
2018-12-22T10:27:11.369Z,96666.19
2018-12-22T10:30:15.455Z,96656.09
2018-12-22T10:33:19.554Z,96647.66
2018-12-22T10:36:23.676Z,96645.87
2018-12-22T10:39:27.625Z,96653.45
2018-12-22T10:42:31.666Z,96652.91
2018-12-22T10:45:35.606Z,96653.84
2018-12-22T10:48:39.737Z,96656.66
2018-12-22T10:51:43.680Z,96652.92
2018-12-22T10:54:47.697Z,96649.54
2018-12-22T10:57:51.662Z,96650.56
2018-12-22T11:00:55.812Z,96648.06
2018-12-22T11:03:59.756Z,96649.95
2018-12-22T11:07:03.828Z,96646.11
2018-12-22T11:10:13.366Z,96643.83
2018-12-22T11:13:17.496Z,96641.82
2018-12-22T11:16:21.440Z,96642.92
2018-12-22T11:19:25.495Z,96655.16
2018-12-22T11:22:29.477Z,96647.48
2018-12-22T11:25:33.536Z,96639.11
2018-12-22T11:28:37.515Z,96651.94
2018-12-22T11:31:41.856Z,96639.11
2018-12-22T11:34:45.819Z,96644.70
2018-12-22T11:37:49.976Z,96654.36
2018-12-22T11:40:53.917Z,96653.23
2018-12-22T11:43:57.956Z,96646.25
2018-12-22T11:47:07.741Z,96632.54
2018-12-22T11:50:18.432Z,96630.69
2018-12-22T11:53:22.377Z,96632.85
2018-12-22T11:56:26.456Z,96623.25
2018-12-22T11:59:30.404Z,96624.78
2018-12-22T12:02:34.646Z,96623.25
2018-12-22T12:05:38.620Z,96626.22
2018-12-22T12:08:42.720Z,96626.00
2018-12-22T12:11:46.657Z,96631.59
2018-12-22T12:14:50.764Z,96628.84
2018-12-22T12:18:27.157Z,96616.41
2018-12-22T12:21:31.233Z,96621.04
2018-12-22T12:24:35.167Z,96616.30
2018-12-22T12:27:39.256Z,96621.92
2018-12-22T12:30:43.192Z,96618.02
2018-12-22T12:33:47.221Z,96609.45
2018-12-22T12:36:51.228Z,96613.20
2018-12-22T12:39:55.377Z,96604.98
2018-12-22T12:42:59.467Z,96612.06
2018-12-22T12:46:03.557Z,96615.41
2018-12-22T12:49:07.889Z,96616.82
2018-12-22T12:52:12.093Z,96620.25
2018-12-22T12:55:16.110Z,96616.53
2018-12-22T12:58:20.208Z,96617.36
2018-12-22T13:01:24.430Z,96615.91
2018-12-22T13:04:28.778Z,96619.19
2018-12-22T13:07:32.785Z,96621.88
2018-12-22T13:10:37.146Z,96615.81
2018-12-22T13:13:45.157Z,96608.70
2018-12-22T13:16:49.200Z,96605.31
2018-12-22T13:19:53.149Z,96610.48
2018-12-22T13:22:57.209Z,96607.30
2018-12-22T13:26:01.182Z,96598.45
2018-12-22T13:29:05.274Z,96596.23
2018-12-22T13:32:09.804Z,96584.96
2018-12-22T13:35:14.555Z,96579.83
2018-12-22T13:38:18.501Z,96569.48
2018-12-22T13:41:22.568Z,96569.10
2018-12-22T13:44:26.797Z,96568.81
2018-12-22T13:47:30.938Z,96565.51
2018-12-22T13:50:35.038Z,96576.42
2018-12-22T13:53:39.201Z,96578.24
2018-12-22T13:56:43.161Z,96581.28
2018-12-22T13:59:47.237Z,96584.06
2018-12-22T14:02:51.217Z,96581.30
2018-12-22T14:05:55.477Z,96591.86
2018-12-22T14:08:59.429Z,96575.02
2018-12-22T14:12:03.497Z,96572.64
2018-12-22T14:15:14.588Z,96575.61
2018-12-22T14:18:26.254Z,96581.30
2018-12-22T14:21:30.194Z,96586.13
2018-12-22T14:24:34.405Z,96581.09
2018-12-22T14:27:38.341Z,96579.28
2018-12-22T14:30:42.424Z,96586.83
2018-12-22T14:33:46.361Z,96585.82
2018-12-22T14:36:50.477Z,96577.94
2018-12-22T14:39:54.440Z,96585.76
2018-12-22T14:42:58.480Z,96585.31
2018-12-22T14:46:02.441Z,96580.08
2018-12-22T14:49:06.505Z,96582.62
2018-12-22T14:52:10.446Z,96590.09
2018-12-22T14:55:14.535Z,96582.05
2018-12-22T14:58:18.537Z,96600.98
2018-12-22T15:01:22.665Z,96593.00
2018-12-22T15:04:26.658Z,96595.33
2018-12-22T15:07:30.824Z,96584.39
2018-12-22T15:10:34.770Z,96591.25
2018-12-22T15:13:38.820Z,96590.90
2018-12-22T15:16:42.768Z,96576.45
2018-12-22T15:19:46.797Z,96575.44
2018-12-22T15:22:50.735Z,96574.06
2018-12-22T15:25:54.762Z,96569.84
2018-12-22T15:28:58.713Z,96576.76
2018-12-22T15:32:02.793Z,96578.19
2018-12-22T15:35:08.852Z,96582.47
2018-12-22T15:38:12.969Z,96571.47
2018-12-22T15:41:16.938Z,96569.67
2018-12-22T15:44:21.002Z,96570.94
2018-12-22T15:47:24.941Z,96568.49
2018-12-22T15:50:37.524Z,96575.97
2018-12-22T15:53:41.472Z,96590.13
2018-12-22T15:56:45.550Z,96599.85
2018-12-22T15:59:49.504Z,96612.72
2018-12-22T16:02:53.641Z,96611.09
2018-12-22T16:05:57.679Z,96619.61
2018-12-22T16:09:01.808Z,96638.84
2018-12-22T16:12:05.749Z,96641.41
2018-12-22T16:15:14.141Z,96685.23
2018-12-22T16:18:18.104Z,96727.59
2018-12-22T16:21:22.160Z,96740.34
2018-12-22T16:24:26.122Z,96757.78
2018-12-22T16:27:30.194Z,96779.97
2018-12-22T16:30:42.089Z,96791.28
2018-12-22T16:33:46.315Z,96787.14
2018-12-22T16:36:50.329Z,96801.05
2018-12-22T16:39:54.447Z,96808.11
2018-12-22T16:42:58.468Z,96826.69
2018-12-22T16:46:02.677Z,96847.64
2018-12-22T16:49:06.624Z,96852.42
2018-12-22T16:52:10.696Z,96869.67
2018-12-22T16:55:16.552Z,96868.48
2018-12-22T16:58:25.776Z,96880.79
2018-12-22T17:01:35.613Z,96881.98
2018-12-22T17:04:39.650Z,96879.81
2018-12-22T17:07:43.700Z,96888.56
2018-12-22T17:10:48.901Z,96898.48
2018-12-22T17:13:52.840Z,96922.03
2018-12-22T17:16:56.937Z,96922.41
2018-12-22T17:20:00.873Z,96937.59
2018-12-22T17:23:26.564Z,96936.64
2018-12-22T17:26:32.223Z,96932.94
2018-12-22T17:29:36.333Z,96947.30
2018-12-22T17:32:40.293Z,96945.98
2018-12-22T17:35:44.380Z,96961.77
2018-12-22T17:38:48.320Z,96972.30
2018-12-22T17:41:52.432Z,96986.41
2018-12-22T17:44:57.088Z,96990.96
2018-12-22T17:48:01.133Z,96978.38
2018-12-22T17:51:05.085Z,97000.41
2018-12-22T17:54:09.161Z,97010.20
2018-12-22T17:57:13.112Z,97007.31
2018-12-22T18:00:17.281Z,97020.59
2018-12-22T18:03:27.437Z,97022.85
2018-12-22T18:06:29.453Z,97033.98
2018-12-22T18:09:33.391Z,97050.72
2018-12-22T18:12:37.408Z,97049.03
2018-12-22T18:15:41.371Z,97057.52
2018-12-22T18:18:45.465Z,97071.14
2018-12-22T18:21:49.413Z,97084.16
2018-12-22T18:24:53.498Z,97088.56
2018-12-22T18:27:57.437Z,97122.07
2018-12-22T18:31:01.449Z,97124.98
2018-12-22T18:34:05.393Z,97138.99
2018-12-22T18:37:09.441Z,97145.98
2018-12-22T18:40:20.176Z,97162.02
2018-12-22T18:43:24.235Z,97183.86
2018-12-22T18:46:28.168Z,97185.95
2018-12-22T18:49:32.357Z,97196.09
2018-12-22T18:52:36.296Z,97215.16
2018-12-22T18:55:40.386Z,97224.11
2018-12-22T18:58:44.337Z,97232.66
2018-12-22T19:01:48.413Z,97244.59
2018-12-22T19:04:52.347Z,97249.95
2018-12-22T19:07:56.537Z,97248.72
2018-12-22T19:11:00.545Z,97253.81
2018-12-22T19:14:04.565Z,97251.39
2018-12-22T19:17:08.500Z,97262.84
2018-12-22T19:20:17.942Z,97269.89
2018-12-22T19:23:21.964Z,97274.49
2018-12-22T19:26:26.149Z,97280.68
2018-12-22T19:29:30.081Z,97284.62
2018-12-22T19:32:34.176Z,97292.16
2018-12-22T19:35:38.113Z,97295.72
2018-12-22T19:38:42.204Z,97312.63
2018-12-22T19:41:47.427Z,97314.14
2018-12-22T19:44:51.444Z,97318.64
2018-12-22T19:47:55.373Z,97326.24
2018-12-22T19:50:59.485Z,97313.97
2018-12-22T19:54:03.418Z,97333.84
2018-12-22T19:57:07.517Z,97335.64
2018-12-22T20:00:11.477Z,97347.45
2018-12-22T20:03:15.515Z,97347.56
2018-12-22T20:06:19.470Z,97357.20
2018-12-22T20:09:23.564Z,97368.19
2018-12-22T20:12:27.496Z,97379.17
2018-12-22T20:15:31.536Z,97372.13
2018-12-22T20:18:35.472Z,97375.30
2018-12-22T20:21:39.517Z,97381.52
2018-12-22T20:24:43.461Z,97385.81
2018-12-22T20:27:47.471Z,97389.02
2018-12-22T20:30:51.431Z,97400.08
2018-12-22T20:33:55.470Z,97405.91
2018-12-22T20:36:59.416Z,97403.73
2018-12-22T20:40:04.006Z,97408.25
2018-12-22T20:43:07.947Z,97408.73
2018-12-22T20:46:12.229Z,97414.81
2018-12-22T20:49:16.264Z,97416.52
2018-12-22T20:52:20.468Z,97420.91
2018-12-22T20:55:24.416Z,97419.97
2018-12-22T20:58:28.500Z,97435.73
2018-12-22T21:01:32.445Z,97445.68
2018-12-22T21:04:36.516Z,97438.73
2018-12-22T21:07:40.457Z,97450.94
2018-12-22T21:10:45.352Z,97449.62
2018-12-22T21:13:49.292Z,97452.31
2018-12-22T21:16:53.397Z,97464.06
2018-12-22T21:19:57.333Z,97472.30
2018-12-22T21:23:01.435Z,97468.35
2018-12-22T21:26:05.374Z,97476.23
2018-12-22T21:29:09.465Z,97474.37
2018-12-22T21:32:13.432Z,97481.03
2018-12-22T21:35:17.579Z,97482.34
2018-12-22T21:38:22.113Z,97482.89
2018-12-22T21:41:26.233Z,97484.20
2018-12-22T21:44:29.925Z,97479.15
2018-12-22T21:47:34.054Z,97484.95
2018-12-22T21:50:38.004Z,97488.44
2018-12-22T21:53:42.069Z,97492.19
2018-12-22T21:56:46.020Z,97492.09
2018-12-22T21:59:50.099Z,97493.95
2018-12-22T22:02:54.052Z,97503.23
2018-12-22T22:05:58.132Z,97494.44
2018-12-22T22:09:02.080Z,97495.36
2018-12-22T22:12:06.268Z,97495.36
2018-12-22T22:15:10.209Z,97505.48
2018-12-22T22:18:14.241Z,97501.19
2018-12-22T22:21:18.212Z,97496.87
2018-12-22T22:24:22.308Z,97503.05
2018-12-22T22:27:26.261Z,97497.80
2018-12-22T22:30:30.384Z,97492.16
2018-12-22T22:33:34.321Z,97490.79
2018-12-22T22:36:38.467Z,97487.20
2018-12-22T22:39:42.408Z,97494.72
2018-12-22T22:42:46.500Z,97482.43
2018-12-22T22:45:50.441Z,97481.59
2018-12-22T22:48:54.452Z,97491.72
2018-12-22T22:51:58.408Z,97490.50
2018-12-22T22:55:02.425Z,97491.81
2018-12-22T22:58:06.373Z,97494.98
2018-12-22T23:01:10.572Z,97491.88
2018-12-22T23:04:14.520Z,97496.68
2018-12-22T23:07:18.605Z,97489.25
2018-12-22T23:10:22.565Z,97484.10
2018-12-22T23:13:26.583Z,97489.34
2018-12-22T23:16:30.517Z,97495.56
2018-12-22T23:19:35.121Z,97502.48
2018-12-22T23:22:39.197Z,97504.17
2018-12-22T23:25:43.292Z,97509.91
2018-12-22T23:28:47.245Z,97516.47
2018-12-22T23:31:51.328Z,97512.14
2018-12-22T23:35:02.788Z,97515.70
2018-12-22T23:38:01.503Z,97520.85
2018-12-22T23:41:05.441Z,97523.48
2018-12-22T23:44:09.525Z,97518.61
2018-12-22T23:47:13.492Z,97521.72
2018-12-22T23:50:17.549Z,97523.86
2018-12-22T23:53:21.489Z,97526.20
2018-12-22T23:56:25.577Z,97535.39
2018-12-22T23:59:29.521Z,97533.63
